Pompano Beach, FL (33064)

11:12 AM EDT on June 03, 2015 (GMT -0400)
Lighthouse Point Estates | | Change Station
CLOSE
Current Station
Personal Weather Station
Location: Lighthouse Point, FL
Elevation: 4 ft
Nearby Weather Stations

Elev 4 ft 26.27 °N, 80.10 °W | Updated 8 seconds ago

Overcast
Overcast
78.7 °F
Feels Like 81 °F
N
0.0
Wind Variable Wind from North
Gusts 6.0 mph

Today
High -- | Low -- °F
--% Chance of Precip.
Yesterday
High -- | Low -- °F
Precip. -- in
6:27 AM 8:09 PM
Full, 99% visible
Pressure 29.96 in
Visibility 10.0 miles
Clouds Few 2300 ft
Scattered Clouds 5500 ft
Heat Index 81 °F
Dew Point 71 °F
Humidity 77%
Rainfall 0.05 in
Snow Depth Not available.
UV 9 out of 12
Pollen .50 out of 12
Air Quality Not available.
Flu Activity Sporadic
METAR KPMP 031453Z 08009KT 10SM FEW023 SCT055 26/21 A2996 RMK AO2 SLP145 T02610211 51009

More Conditions Fewer Conditions

Pressure 29.96 in
Visibility 10.0 miles
Clouds Few 2300 ft
Scattered Clouds 5500 ft
Heat Index 81 °F
Dew Point 71 °F
Humidity 77%
Rainfall 0.05 in
Snow Depth Not available.
UV 9 out of 12
Pollen .50 out of 12
Air Quality Not available.
Flu Activity Sporadic
METAR KPMP 031453Z 08009KT 10SM FEW023 SCT055 26/21 A2996 RMK AO2 SLP145 T02610211 51009

More Conditions Fewer Conditions

10-Day Weather Forecast

×

Almanac

Astronomy

Jun. 03, 2015 Rise Set
Actual Time
Civil Twilight
Nautical Twilight
Astronomical Twilight
Moon
Length of Visible Light
Length of Day
Tomorrow will be .
, % of the Moon is Illuminated

Today's Extremes

State Highs State Lows

Community

WunderPhotos

Upload Photos

1,826,234 photos uploaded!

WunderBlogs® & News

Nearby

Air Quality

  Air Quality AQ Index Pollutant
Not available.

Snow Depth

Station Depth Elevation

Earthquake Activity

City Distance Mag. Time & Date
Minimum magnitude displayed is 2.5.

Coastal Water Temperatures

Place Temperature

Stations

Nearby Weather Stations

Station Location Temp. Windchill Dew Point Humidity Wind Precip. Elev Updated Type